Time;durP1;ratioP1;P1;durP2;ratioP2;P2;SDS_P1;SDS_P2;PMS_P1;PMS_P2;Temp;Humidity;BMP_temperature;BMP_pressure;BME280_temperature;BME280_humidity;BME280_pressure;Samples;Min_cycle;Max_cycle;Signal;HPM_P1;HPM_P2
2023/01/23 05:01:05;;;;;;;1.65;1.65;;;3.10;99.90;;;;;;5643748;23;20301;-65
2023/01/23 05:03:33;;;;;;;2.35;1.00;;;3.10;99.90;;;;;;4929196;29;20214;-65
2023/01/23 05:06:00;;;;;;;2.20;2.05;;;3.10;99.90;;;;;;4931839;29;20582;-64
2023/01/23 05:08:27;;;;;;;2.45;2.42;;;3.10;99.90;;;;;;4937302;29;20222;-67
2023/01/23 05:10:53;;;;;;;0.80;0.80;;;3.10;99.90;;;;;;4932799;29;20226;-65
2023/01/23 05:13:20;;;;;;;2.33;2.30;;;3.10;99.90;;;;;;4932470;29;20213;-65
2023/01/23 05:15:47;;;;;;;3.33;3.13;;;3.10;99.90;;;;;;4932401;29;20228;-66
2023/01/23 05:18:15;;;;;;;3.47;3.28;;;3.10;99.90;;;;;;4931583;29;20207;-65
2023/01/23 05:20:42;;;;;;;1.58;1.35;;;3.10;99.90;;;;;;4933807;29;20245;-67
2023/01/23 05:23:09;;;;;;;1.40;1.40;;;3.10;99.90;;;;;;4930208;29;20698;-67
2023/01/23 05:25:35;;;;;;;2.28;1.33;;;3.10;99.90;;;;;;4933686;29;20291;-67
2023/01/23 05:28:02;;;;;;;1.48;1.40;;;3.10;99.90;;;;;;4932734;29;20216;-67
2023/01/23 05:30:29;;;;;;;2.80;2.22;;;3.10;99.90;;;;;;4931144;29;20209;-67
2023/01/23 05:32:55;;;;;;;1.25;1.00;;;3.10;99.90;;;;;;4931654;29;20202;-67
2023/01/23 05:35:23;;;;;;;2.95;1.08;;;3.10;99.90;;;;;;4929295;29;20234;-67
2023/01/23 05:37:51;;;;;;;1.00;1.00;;;3.10;99.90;;;;;;4932308;29;20654;-67
2023/01/23 05:40:18;;;;;;;3.65;3.38;;;3.10;99.90;;;;;;4929577;29;20229;-67
2023/01/23 05:42:45;;;;;;;2.28;2.13;;;3.10;99.90;;;;;;4933867;29;20217;-67
2023/01/23 05:45:12;;;;;;;1.27;1.27;;;3.10;99.90;;;;;;4930237;28;20202;-67
2023/01/23 05:47:39;;;;;;;3.53;1.55;;;3.10;99.90;;;;;;4921010;29;20290;-67
2023/01/23 05:50:08;;;;;;;2.88;1.80;;;3.10;99.90;;;;;;4931664;29;20213;-67
2023/01/23 05:52:37;;;;;;;2.20;2.10;;;3.10;99.90;;;;;;4923649;29;20226;-67
2023/01/23 05:55:04;;;;;;;3.97;2.92;;;3.20;99.90;;;;;;4930967;29;20205;-67
2023/01/23 05:57:30;;;;;;;1.75;1.65;;;3.20;99.90;;;;;;4931012;29;20274;-68
2023/01/23 05:59:57;;;;;;;3.10;1.55;;;3.10;99.90;;;;;;4932585;29;20229;-67
2023/01/23 06:02:24;;;;;;;2.58;1.80;;;3.10;99.90;;;;;;4928849;29;20249;-67
2023/01/23 06:04:50;;;;;;;1.25;1.25;;;3.10;99.90;;;;;;4929927;29;20218;-67
2023/01/23 06:07:19;;;;;;;1.20;1.20;;;3.20;99.90;;;;;;4929517;29;20214;-67
2023/01/23 06:09:47;;;;;;;3.03;2.72;;;3.10;99.90;;;;;;4931154;29;20206;-67
2023/01/23 06:12:14;;;;;;;1.38;1.38;;;3.10;99.90;;;;;;4931857;29;20236;-67
2023/01/23 06:14:40;;;;;;;2.08;1.98;;;3.10;99.90;;;;;;4929964;29;20232;-67
2023/01/23 06:17:07;;;;;;;0.95;0.95;;;3.10;99.90;;;;;;4929865;29;20588;-67
2023/01/23 06:19:34;;;;;;;3.05;2.25;;;3.10;99.90;;;;;;4931481;29;20333;-68
2023/01/23 06:22:01;;;;;;;1.85;1.60;;;3.10;99.90;;;;;;4930881;29;20234;-67
2023/01/23 06:24:28;;;;;;;2.97;2.03;;;3.10;99.90;;;;;;4932059;29;20226;-67
2023/01/23 06:26:56;;;;;;;2.28;2.08;;;3.20;99.90;;;;;;4931404;29;20241;-67
2023/01/23 06:29:23;;;;;;;1.08;1.08;;;3.10;99.90;;;;;;4931402;29;20221;-67
2023/01/23 06:31:49;;;;;;;1.83;1.83;;;3.10;99.90;;;;;;4930574;29;20587;-67
2023/01/23 06:34:16;;;;;;;1.67;1.67;;;3.10;99.90;;;;;;4931261;29;20225;-67
2023/01/23 06:36:45;;;;;;;3.50;2.80;;;3.10;99.90;;;;;;4930309;29;20222;-67
2023/01/23 06:39:14;;;;;;;1.25;1.25;;;3.20;99.90;;;;;;4930976;29;20205;-67
2023/01/23 06:41:40;;;;;;;6.22;1.13;;;3.20;99.90;;;;;;4928245;29;20264;-68
2023/01/23 06:44:08;;;;;;;0.73;0.73;;;3.20;99.90;;;;;;4931416;29;20206;-67
2023/01/23 06:46:35;;;;;;;2.63;2.28;;;3.20;99.90;;;;;;4932274;29;20219;-67
2023/01/23 06:49:03;;;;;;;2.22;2.10;;;3.20;99.90;;;;;;4931938;29;20206;-68
2023/01/23 06:51:30;;;;;;;4.93;3.90;;;3.20;99.90;;;;;;4932024;29;20234;-68
2023/01/23 06:53:57;;;;;;;3.58;2.38;;;3.20;99.90;;;;;;4932622;29;20206;-68
2023/01/23 06:56:23;;;;;;;1.70;1.70;;;3.20;99.90;;;;;;4928595;29;20815;-67
2023/01/23 06:58:50;;;;;;;2.25;2.15;;;3.20;99.90;;;;;;4933988;29;20210;-68
2023/01/23 07:01:18;;;;;;;1.88;1.75;;;3.20;99.90;;;;;;4933205;29;20230;-67
2023/01/23 07:03:45;;;;;;;2.00;1.85;;;3.20;99.90;;;;;;4933569;29;20568;-68
2023/01/23 07:06:13;;;;;;;1.13;1.13;;;3.20;99.90;;;;;;4935244;29;20214;-67
2023/01/23 07:08:41;;;;;;;1.35;1.17;;;3.20;99.90;;;;;;4932509;29;20651;-67
2023/01/23 07:11:08;;;;;;;2.08;1.98;;;3.20;99.90;;;;;;4934526;29;20259;-67
2023/01/23 07:13:35;;;;;;;2.05;1.85;;;3.20;99.90;;;;;;4934413;29;20690;-67
2023/01/23 07:16:02;;;;;;;1.10;1.08;;;3.20;99.90;;;;;;4935277;29;20225;-68
2023/01/23 07:18:31;;;;;;;3.28;2.22;;;3.10;99.90;;;;;;4933126;29;20210;-67
2023/01/23 07:20:58;;;;;;;3.38;1.77;;;3.20;99.90;;;;;;4935134;29;20256;-68
2023/01/23 07:23:25;;;;;;;2.53;2.42;;;3.20;99.90;;;;;;4934056;29;20646;-68
2023/01/23 07:25:51;;;;;;;3.33;1.98;;;3.10;99.90;;;;;;4935242;29;20210;-68
2023/01/23 07:28:18;;;;;;;1.42;1.13;;;3.20;99.90;;;;;;4933869;29;20202;-68
2023/01/23 07:30:46;;;;;;;3.85;1.75;;;3.20;99.90;;;;;;4935275;29;20237;-68
2023/01/23 07:33:13;;;;;;;3.25;3.05;;;3.20;99.90;;;;;;4934026;29;20703;-68
2023/01/23 07:35:41;;;;;;;2.05;1.85;;;3.20;99.90;;;;;;4935936;29;20272;-67
2023/01/23 07:38:07;;;;;;;3.42;3.22;;;3.20;99.90;;;;;;4929991;29;20218;-67
2023/01/23 07:40:37;;;;;;;3.55;3.28;;;3.20;99.90;;;;;;4935543;29;20229;-67
2023/01/23 07:43:04;;;;;;;5.15;1.98;;;3.20;99.90;;;;;;4934754;29;20214;-67
2023/01/23 07:45:31;;;;;;;1.60;1.60;;;3.10;99.90;;;;;;4933498;29;20688;-67
2023/01/23 07:47:58;;;;;;;2.95;2.75;;;3.10;99.90;;;;;;4934740;29;20210;-68
2023/01/23 07:50:25;;;;;;;2.05;1.95;;;3.20;99.90;;;;;;4935079;29;20206;-67
2023/01/23 07:52:53;;;;;;;3.72;3.45;;;3.10;99.90;;;;;;4929264;29;20575;-67
2023/01/23 07:55:19;;;;;;;1.08;1.08;;;3.20;99.90;;;;;;4933212;29;20206;-67
2023/01/23 07:57:46;;;;;;;3.20;3.10;;;3.20;99.90;;;;;;4920253;29;21011;-66
2023/01/23 08:00:13;;;;;;;4.55;2.85;;;3.20;99.90;;;;;;4931093;29;20237;-67
2023/01/23 08:02:40;;;;;;;1.45;1.38;;;3.20;99.90;;;;;;4933942;29;20206;-67
2023/01/23 08:05:07;;;;;;;2.65;2.65;;;3.20;99.90;;;;;;4935260;29;20202;-67
2023/01/23 08:07:34;;;;;;;2.90;1.25;;;3.20;99.90;;;;;;4936324;29;20206;-66
2023/01/23 08:10:02;;;;;;;1.73;1.63;;;3.20;99.90;;;;;;4935031;29;20274;-66
2023/01/23 08:12:29;;;;;;;2.10;2.00;;;3.20;99.90;;;;;;4935137;29;20567;-66
2023/01/23 08:14:56;;;;;;;2.83;2.70;;;3.20;99.90;;;;;;4930704;29;20221;-66
2023/01/23 08:17:22;;;;;;;5.50;1.90;;;3.20;99.90;;;;;;4934238;29;20548;-66
2023/01/23 08:19:49;;;;;;;5.45;3.17;;;3.20;99.90;;;;;;4932868;29;20206;-66
2023/01/23 08:22:16;;;;;;;2.80;2.60;;;3.20;99.90;;;;;;4934425;29;20244;-65
2023/01/23 08:24:43;;;;;;;2.72;2.28;;;3.20;99.90;;;;;;4934071;29;20212;-66
2023/01/23 08:27:11;;;;;;;3.50;2.40;;;3.20;99.90;;;;;;4935164;29;20206;-66
2023/01/23 08:29:37;;;;;;;1.98;1.88;;;3.20;99.90;;;;;;4932977;29;20206;-66
2023/01/23 08:32:05;;;;;;;2.58;2.00;;;3.20;99.90;;;;;;4934883;29;20222;-65
2023/01/23 08:34:31;;;;;;;1.75;1.65;;;3.20;99.90;;;;;;4936853;29;20211;-65
2023/01/23 08:36:58;;;;;;;2.33;2.22;;;3.20;99.90;;;;;;4935008;29;20680;-65
2023/01/23 08:39:25;;;;;;;7.22;5.13;;;3.20;99.90;;;;;;4931987;29;20309;-65
2023/01/23 08:41:52;;;;;;;2.67;2.00;;;3.30;99.90;;;;;;4931318;29;20231;-67
2023/01/23 08:44:20;;;;;;;5.22;3.13;;;3.30;99.90;;;;;;4928738;29;20209;-66
2023/01/23 08:46:47;;;;;;;2.53;1.35;;;3.30;99.90;;;;;;4933776;29;20678;-66
2023/01/23 08:49:13;;;;;;;14.05;4.22;;;3.30;99.90;;;;;;4934423;29;20210;-67
2023/01/23 08:51:40;;;;;;;3.72;3.58;;;3.30;99.90;;;;;;4935195;29;20244;-67
2023/01/23 08:54:07;;;;;;;3.60;3.40;;;3.30;99.90;;;;;;4936978;29;20234;-67
2023/01/23 08:56:34;;;;;;;8.50;1.67;;;3.30;99.90;;;;;;4934441;29;20214;-67
2023/01/23 08:59:00;;;;;;;2.72;2.47;;;3.30;99.90;;;;;;4932839;29;20218;-67
2023/01/23 09:01:28;;;;;;;4.22;3.03;;;3.40;99.90;;;;;;4933794;29;20245;-66
2023/01/23 09:03:56;;;;;;;3.40;2.60;;;3.40;99.90;;;;;;4933611;29;20213;-66
2023/01/23 09:06:23;;;;;;;2.60;2.50;;;3.40;99.90;;;;;;4933057;29;20214;-65
2023/01/23 09:08:50;;;;;;;4.93;3.35;;;3.40;99.90;;;;;;4933839;29;20210;-66
2023/01/23 09:11:17;;;;;;;3.83;2.03;;;3.40;99.90;;;;;;4932375;29;20563;-66
2023/01/23 09:13:46;;;;;;;2.70;2.50;;;3.40;99.90;;;;;;4933395;29;20206;-67
2023/01/23 09:16:13;;;;;;;2.30;2.20;;;3.40;99.90;;;;;;4928867;29;20210;-67
2023/01/23 09:18:41;;;;;;;3.75;3.55;;;3.50;99.90;;;;;;4934144;29;20206;-67
2023/01/23 09:21:10;;;;;;;7.18;3.78;;;3.50;99.90;;;;;;4932106;29;20238;-67
2023/01/23 09:23:37;;;;;;;8.27;2.78;;;3.50;99.90;;;;;;4931817;29;20221;-66
2023/01/23 09:26:05;;;;;;;3.70;2.95;;;3.50;99.90;;;;;;4932870;29;20217;-66
2023/01/23 09:28:32;;;;;;;1.70;1.60;;;3.50;99.90;;;;;;4921487;29;20207;-66
2023/01/23 09:31:03;;;;;;;4.40;4.05;;;3.50;99.90;;;;;;4930439;29;20233;-67
2023/01/23 09:33:30;;;;;;;8.50;2.55;;;3.60;99.90;;;;;;4933694;29;20210;-67
2023/01/23 09:35:58;;;;;;;3.00;2.58;;;3.60;99.90;;;;;;4930640;29;20206;-67
2023/01/23 09:38:25;;;;;;;5.00;4.50;;;3.60;99.90;;;;;;4930167;29;20221;-66
2023/01/23 09:40:54;;;;;;;6.30;5.45;;;3.60;99.90;;;;;;4929406;29;20293;-67
2023/01/23 09:43:26;;;;;;;1.27;1.27;;;3.60;99.90;;;;;;4924784;29;20682;-66
2023/01/23 09:46:00;;;;;;;3.50;3.28;;;3.60;99.90;;;;;;4924740;29;20202;-66
2023/01/23 09:48:31;;;;;;;7.93;3.63;;;3.60;99.90;;;;;;4933206;29;20220;-67
2023/01/23 09:51:07;;;;;;;4.05;2.78;;;3.60;99.90;;;;;;4932208;29;20258;-67
2023/01/23 09:53:38;;;;;;;2.45;2.35;;;3.60;99.90;;;;;;4930106;29;20226;-66
2023/01/23 09:56:13;;;;;;;4.32;3.88;;;3.60;99.90;;;;;;4932479;29;20231;-66
2023/01/23 09:58:46;;;;;;;7.32;3.92;;;3.70;99.90;;;;;;4924823;29;20218;-68
2023/01/23 10:01:13;;;;;;;8.73;4.38;;;3.70;99.90;;;;;;4930702;29;20571;-66
2023/01/23 10:03:40;;;;;;;4.90;4.50;;;3.70;99.90;;;;;;4929931;29;20217;-67
2023/01/23 10:06:20;;;;;;;4.50;4.18;;;3.70;99.90;;;;;;4927407;29;20226;-66
2023/01/23 10:09:08;;;;;;;7.28;2.67;;;3.70;99.90;;;;;;4925842;29;20216;-66
2023/01/23 10:11:43;;;;;;;4.30;3.40;;;3.70;99.90;;;;;;4928669;29;20222;-66
2023/01/23 10:14:39;;;;;;;7.80;4.03;;;3.80;99.90;;;;;;4929263;29;20678;-66
2023/01/23 10:17:14;;;;;;;2.78;2.08;;;3.80;99.90;;;;;;4930225;29;20309;-67
2023/01/23 10:19:56;;;;;;;5.47;5.15;;;3.80;99.90;;;;;;4926706;29;20249;-68
2023/01/23 10:22:38;;;;;;;4.20;3.55;;;3.80;99.90;;;;;;4930705;29;20242;-67
2023/01/23 10:25:13;;;;;;;6.60;3.55;;;3.80;99.90;;;;;;4931735;29;20206;-67
2023/01/23 10:27:43;;;;;;;7.07;6.35;;;3.80;99.90;;;;;;4925238;29;20217;-66
2023/01/23 10:30:26;;;;;;;4.78;3.45;;;3.80;99.90;;;;;;4918272;29;20211;-66
2023/01/23 10:32:58;;;;;;;3.20;3.00;;;3.80;99.90;;;;;;4919490;29;20214;-67
2023/01/23 10:35:32;;;;;;;3.10;2.90;;;3.80;99.90;;;;;;4925739;29;20650;-67
2023/01/23 10:38:09;;;;;;;4.93;4.68;;;3.80;99.90;;;;;;4931326;29;20305;-67
2023/01/23 10:43:32;;;;;;;9.43;6.50;;;3.90;99.90;;;;;;4926174;29;20197;-66
2023/01/23 10:45:59;;;;;;;9.55;5.70;;;3.90;99.90;;;;;;4925479;29;20221;-67
2023/01/23 10:48:44;;;;;;;4.25;3.92;;;3.90;99.90;;;;;;4928929;29;20741;-67
2023/01/23 10:51:26;;;;;;;9.30;5.47;;;3.90;99.90;;;;;;4930310;29;20743;-67
2023/01/23 10:54:22;;;;;;;9.23;5.07;;;3.90;99.90;;;;;;4928240;29;20293;-67
2023/01/23 10:56:53;;;;;;;2.50;0.73;;;3.90;99.90;;;;;;4906162;29;20297;-68
2023/01/23 10:59:29;;;;;;;5.47;5.03;;;3.90;99.90;;;;;;4929298;29;20633;-67
2023/01/23 11:01:58;;;;;;;2.95;2.80;;;3.90;99.90;;;;;;4929178;29;20236;-67
2023/01/23 11:04:27;;;;;;;8.05;4.38;;;3.90;99.90;;;;;;4928695;29;20215;-67
2023/01/23 11:07:07;;;;;;;8.27;7.55;;;3.90;99.90;;;;;;4925598;29;20210;-67
2023/01/23 11:09:47;;;;;;;9.18;2.85;;;3.90;99.90;;;;;;4931014;29;20210;-67
2023/01/23 11:12:17;;;;;;;3.00;2.80;;;3.90;99.90;;;;;;4937730;28;20234;-67
2023/01/23 11:14:44;;;;;;;10.48;5.53;;;3.90;99.90;;;;;;4926317;29;20290;-67
2023/01/23 11:17:18;;;;;;;13.43;6.03;;;4.00;99.90;;;;;;4928726;29;20229;-67
2023/01/23 11:19:47;;;;;;;9.75;5.55;;;4.00;99.90;;;;;;4933389;29;20210;-67
2023/01/23 11:22:30;;;;;;;5.32;3.50;;;4.00;99.90;;;;;;4933062;28;20272;-67
2023/01/23 11:24:58;;;;;;;7.57;5.95;;;4.00;99.90;;;;;;4927828;29;20221;-67
2023/01/23 11:27:28;;;;;;;8.18;4.85;;;4.10;99.90;;;;;;4922538;29;20664;-67
2023/01/23 11:30:31;;;;;;;7.78;7.15;;;4.10;99.90;;;;;;4933518;29;20210;-67
2023/01/23 11:33:00;;;;;;;8.50;6.30;;;4.10;99.90;;;;;;4923923;29;20587;-68
2023/01/23 11:35:43;;;;;;;3.53;3.05;;;4.10;99.90;;;;;;4929062;29;20242;-67
2023/01/23 11:38:12;;;;;;;9.10;5.32;;;4.10;99.90;;;;;;4956501;23;20230;-70
2023/01/23 11:40:40;;;;;;;9.65;4.63;;;4.20;99.90;;;;;;4936428;29;20214;-69
2023/01/23 11:43:13;;;;;;;5.70;4.15;;;4.20;99.90;;;;;;4937400;28;20236;-67
2023/01/23 11:45:49;;;;;;;5.70;4.10;;;4.30;99.90;;;;;;4937037;29;20298;-68
2023/01/23 11:48:32;;;;;;;4.70;3.42;;;4.40;99.90;;;;;;4939471;28;20694;-70
2023/01/23 11:51:05;;;;;;;3.72;3.45;;;4.40;99.90;;;;;;4935159;29;20206;-69
2023/01/23 11:53:38;;;;;;;8.10;4.97;;;4.40;99.90;;;;;;4939076;29;20206;-70
2023/01/23 11:56:39;;;;;;;7.53;4.55;;;4.30;99.90;;;;;;4937697;29;20213;-70
2023/01/23 11:59:25;;;;;;;9.43;4.95;;;4.40;99.90;;;;;;4933164;29;20225;-68
2023/01/23 12:02:11;;;;;;;4.95;4.50;;;4.30;99.90;;;;;;4934841;29;20229;-68
2023/01/23 12:05:07;;;;;;;6.68;5.82;;;4.30;99.90;;;;;;4933024;29;20230;-70
2023/01/23 12:07:40;;;;;;;6.47;5.88;;;4.30;99.90;;;;;;4936564;29;20767;-68
2023/01/23 12:10:22;;;;;;;10.98;5.78;;;4.40;99.90;;;;;;4938816;29;20211;-69
2023/01/23 12:13:11;;;;;;;7.38;4.60;;;4.40;99.90;;;;;;4936007;29;20215;-69
2023/01/23 12:15:46;;;;;;;8.35;5.05;;;4.40;99.90;;;;;;4933542;29;20202;-69
2023/01/23 12:18:26;;;;;;;4.10;3.80;;;4.40;99.90;;;;;;4935884;29;20282;-68
2023/01/23 12:21:02;;;;;;;8.02;3.70;;;4.50;99.90;;;;;;4936197;29;20801;-70
2023/01/23 12:23:48;;;;;;;5.55;4.03;;;4.40;99.90;;;;;;4938931;29;20215;-69
2023/01/23 12:26:18;;;;;;;6.47;4.82;;;4.50;99.90;;;;;;4938819;29;20210;-68
2023/01/23 12:29:21;;;;;;;11.52;5.00;;;4.50;99.90;;;;;;4932346;29;20722;-69
2023/01/23 12:32:05;;;;;;;9.23;3.47;;;4.50;99.90;;;;;;4935878;29;20349;-68
2023/01/23 12:34:51;;;;;;;4.80;4.28;;;4.50;99.90;;;;;;4940401;29;20233;-69
2023/01/23 12:37:32;;;;;;;4.47;4.03;;;4.50;99.90;;;;;;4928807;29;20235;-71
2023/01/23 12:40:05;;;;;;;5.80;4.53;;;4.50;99.90;;;;;;4937955;29;20218;-70
2023/01/23 12:42:40;;;;;;;5.75;3.60;;;4.50;99.90;;;;;;4935034;29;20218;-70
2023/01/23 12:45:16;;;;;;;4.75;4.35;;;4.50;99.90;;;;;;4934963;29;20226;-68
2023/01/23 12:47:51;;;;;;;5.07;4.68;;;4.50;99.90;;;;;;4937460;29;20248;-68
2023/01/23 12:50:21;;;;;;;9.10;3.88;;;4.40;99.90;;;;;;4934287;29;20205;-69
2023/01/23 12:52:52;;;;;;;7.00;3.78;;;4.40;99.90;;;;;;4936718;29;20202;-69
2023/01/23 12:55:22;;;;;;;7.60;4.93;;;4.50;99.90;;;;;;4938423;29;20207;-70
2023/01/23 12:57:53;;;;;;;5.15;4.75;;;4.50;99.90;;;;;;4937610;29;20226;-68
2023/01/23 13:00:44;;;;;;;5.40;3.70;;;4.50;99.90;;;;;;4939007;29;20206;-69
2023/01/23 13:03:26;;;;;;;8.75;4.90;;;4.50;99.90;;;;;;4937503;29;20222;-69
2023/01/23 13:06:08;;;;;;;4.78;2.80;;;4.50;99.90;;;;;;4934535;29;20641;-69
2023/01/23 13:08:41;;;;;;;6.45;5.97;;;4.50;99.90;;;;;;4937662;29;20305;-69
2023/01/23 13:13:59;;;;;;;1.88;1.88;;;4.50;99.90;;;;;;4934774;29;20683;-70
2023/01/23 13:16:29;;;;;;;3.65;2.72;;;4.50;99.90;;;;;;4937645;29;20214;-68
2023/01/23 13:22:02;;;;;;;6.68;5.75;;;4.50;99.90;;;;;;4937598;29;20238;-68
2023/01/23 13:27:46;;;;;;;5.60;5.10;;;4.60;99.90;;;;;;4938908;29;20244;-68
2023/01/23 13:30:40;;;;;;;12.27;4.15;;;4.60;99.90;;;;;;4937581;29;20230;-69
2023/01/23 13:33:52;;;;;;;7.18;4.80;;;4.50;99.90;;;;;;4934857;29;20214;-69
2023/01/23 13:36:36;;;;;;;14.85;6.60;;;4.50;99.90;;;;;;4934753;29;20210;-69
2023/01/23 13:39:22;;;;;;;6.45;4.15;;;4.50;99.90;;;;;;4931249;29;20234;-69
2023/01/23 13:41:50;;;;;;;4.63;3.28;;;4.40;99.90;;;;;;4933106;29;20218;-68
2023/01/23 13:44:20;;;;;;;7.10;3.53;;;4.40;99.90;;;;;;4933619;29;20227;-69
2023/01/23 13:47:04;;;;;;;7.05;3.72;;;4.40;99.90;;;;;;4937601;29;20202;-68
2023/01/23 13:49:51;;;;;;;5.63;4.32;;;4.40;99.90;;;;;;4936395;29;20210;-69
2023/01/23 13:58:01;;;;;;;12.25;3.70;;;4.40;99.90;;;;;;4938086;29;20292;-68
2023/01/23 14:00:29;;;;;;;27.13;5.63;;;4.40;99.90;;;;;;4940072;29;20663;-69
2023/01/23 14:05:43;;;;;;;5.13;3.67;;;4.40;99.90;;;;;;4936353;29;20209;-69
2023/01/23 14:08:18;;;;;;;6.85;4.80;;;4.40;99.90;;;;;;4936204;29;20592;-69
2023/01/23 14:10:47;;;;;;;4.13;3.38;;;4.40;99.90;;;;;;4933859;29;20213;-68
2023/01/23 14:13:17;;;;;;;3.95;3.65;;;4.30;99.90;;;;;;4940729;29;20565;-70
2023/01/23 14:18:34;;;;;;;4.65;4.35;;;4.30;99.90;;;;;;4935049;29;20233;-70
2023/01/23 14:21:03;;;;;;;7.72;4.63;;;4.30;99.90;;;;;;4939756;29;20210;-67
2023/01/23 14:23:36;;;;;;;14.15;5.32;;;4.30;99.90;;;;;;4938676;29;20234;-69
2023/01/23 14:26:04;;;;;;;6.88;4.68;;;4.30;99.90;;;;;;4937698;29;20207;-69
2023/01/23 14:28:31;;;;;;;3.47;2.53;;;4.30;99.90;;;;;;4937993;29;20706;-69
2023/01/23 14:31:01;;;;;;;8.70;5.00;;;4.30;99.90;;;;;;4933996;29;20210;-69
2023/01/23 14:33:28;;;;;;;4.07;3.55;;;4.30;99.90;;;;;;4933081;29;20228;-69
2023/01/23 14:35:56;;;;;;;5.82;5.20;;;4.30;99.90;;;;;;4935289;29;20206;-69
2023/01/23 14:38:30;;;;;;;6.85;3.63;;;4.30;99.90;;;;;;4936307;29;20233;-70
2023/01/23 14:40:58;;;;;;;4.25;2.47;;;4.30;99.90;;;;;;4936056;29;20762;-70
2023/01/23 14:43:27;;;;;;;8.88;4.60;;;4.30;99.90;;;;;;4935703;29;20752;-68
2023/01/23 14:46:00;;;;;;;2.90;2.75;;;4.30;99.90;;;;;;4935330;29;20211;-69
2023/01/23 14:48:28;;;;;;;3.88;3.55;;;4.20;99.90;;;;;;4937924;29;20238;-69
2023/01/23 14:51:04;;;;;;;4.05;2.53;;;4.20;99.90;;;;;;4937260;29;20262;-68
2023/01/23 14:53:30;;;;;;;5.63;4.28;;;4.20;99.90;;;;;;4933909;29;20228;-69
2023/01/23 14:56:00;;;;;;;3.42;3.33;;;4.20;99.90;;;;;;4931427;29;21002;-67
2023/01/23 14:58:28;;;;;;;3.75;3.10;;;4.20;99.90;;;;;;4931442;29;20289;-68
2023/01/23 15:00:56;;;;;;;7.63;3.55;;;4.20;99.90;;;;;;4931895;29;20290;-68
2023/01/23 15:03:40;;;;;;;4.65;4.22;;;4.20;99.90;;;;;;4931767;29;20233;-68
2023/01/23 15:06:11;;;;;;;4.63;4.18;;;4.20;99.90;;;;;;4932695;29;20214;-68
2023/01/23 15:08:39;;;;;;;8.50;5.90;;;4.20;99.90;;;;;;4930946;29;20226;-68
2023/01/23 15:11:10;;;;;;;9.48;5.47;;;4.20;99.90;;;;;;4933229;29;20494;-69
2023/01/23 15:13:43;;;;;;;7.53;3.67;;;4.10;99.90;;;;;;4926996;29;20202;-69
2023/01/23 15:16:14;;;;;;;5.15;4.35;;;4.10;99.90;;;;;;4930474;29;20211;-68
2023/01/23 15:18:51;;;;;;;5.72;5.00;;;4.20;99.90;;;;;;4935352;29;20724;-70
2023/01/23 15:21:27;;;;;;;5.40;4.00;;;4.20;99.90;;;;;;4936066;29;20215;-70
2023/01/23 15:24:20;;;;;;;9.18;4.20;;;4.20;99.90;;;;;;4938715;29;20214;-69
2023/01/23 15:27:00;;;;;;;4.22;3.67;;;4.10;99.90;;;;;;4928193;29;20361;-69
2023/01/23 15:29:26;;;;;;;5.03;4.75;;;4.10;99.90;;;;;;4936423;29;20443;-69
2023/01/23 15:31:54;;;;;;;5.05;4.60;;;4.10;99.90;;;;;;4935792;29;20262;-69
2023/01/23 15:34:24;;;;;;;7.70;6.45;;;4.10;99.90;;;;;;4934001;29;20215;-69
2023/01/23 15:36:55;;;;;;;2.78;2.58;;;4.10;99.90;;;;;;4934306;29;20221;-69
2023/01/23 15:39:25;;;;;;;7.97;4.10;;;4.10;99.90;;;;;;4936857;29;20583;-69
2023/01/23 15:41:55;;;;;;;5.47;4.28;;;4.10;99.90;;;;;;4931117;29;20217;-68
2023/01/23 15:44:26;;;;;;;4.65;3.28;;;4.10;99.90;;;;;;4935490;29;20667;-68
2023/01/23 15:46:53;;;;;;;5.65;3.75;;;4.10;99.90;;;;;;4941309;29;20534;-67
2023/01/23 15:49:20;;;;;;;5.65;3.75;;;4.10;99.90;;;;;;4941425;29;20210;-68
2023/01/23 15:51:46;;;;;;;3.47;3.28;;;4.10;99.90;;;;;;4938087;29;20203;-69
2023/01/23 15:54:20;;;;;;;5.35;4.40;;;4.00;99.90;;;;;;4934373;29;20228;-69
2023/01/23 15:56:46;;;;;;;8.85;4.93;;;4.00;99.90;;;;;;4938078;29;20210;-71
2023/01/23 15:59:15;;;;;;;4.63;4.32;;;4.00;99.90;;;;;;4940554;29;20238;-68
2023/01/23 16:01:43;;;;;;;6.20;3.03;;;4.00;99.90;;;;;;4934357;29;20231;-69
2023/01/23 16:04:10;;;;;;;4.65;4.32;;;4.00;99.90;;;;;;4939276;29;20234;-69
2023/01/23 16:06:38;;;;;;;8.57;7.35;;;4.00;99.90;;;;;;4939554;29;20287;-69
2023/01/23 16:09:05;;;;;;;4.07;2.80;;;4.00;99.90;;;;;;4937038;29;20261;-69
2023/01/23 16:11:34;;;;;;;10.98;5.20;;;4.00;99.90;;;;;;4938787;29;20222;-70
2023/01/23 16:14:01;;;;;;;6.50;5.85;;;4.00;99.90;;;;;;4931932;29;20199;-69
2023/01/23 16:16:29;;;;;;;10.10;6.03;;;4.00;99.90;;;;;;4942011;29;20214;-70
2023/01/23 16:18:57;;;;;;;16.92;4.72;;;4.00;99.90;;;;;;4943988;29;20277;-71
2023/01/23 16:21:29;;;;;;;4.22;3.13;;;4.00;99.90;;;;;;4942732;29;20229;-70
2023/01/23 16:23:57;;;;;;;4.95;3.75;;;4.00;99.90;;;;;;4943920;29;20302;-69
2023/01/23 16:26:26;;;;;;;7.45;3.42;;;4.00;99.90;;;;;;4939805;29;20221;-69
2023/01/23 16:28:52;;;;;;;7.18;5.00;;;4.00;99.90;;;;;;4944294;28;20229;-69
2023/01/23 16:31:19;;;;;;;6.13;3.85;;;4.00;99.90;;;;;;4941983;29;20647;-70
2023/01/23 16:33:46;;;;;;;6.35;4.70;;;4.00;99.90;;;;;;4944656;29;20194;-70
2023/01/23 16:36:15;;;;;;;7.70;3.58;;;4.00;99.90;;;;;;4943100;29;20215;-69
2023/01/23 16:38:44;;;;;;;3.80;3.55;;;4.00;99.90;;;;;;4941552;29;20248;-71
2023/01/23 16:41:11;;;;;;;6.65;4.90;;;4.00;99.90;;;;;;4935421;29;20206;-69
2023/01/23 16:43:38;;;;;;;5.88;4.88;;;4.00;99.90;;;;;;4932193;29;20236;-69
2023/01/23 16:46:05;;;;;;;6.60;5.93;;;4.00;99.90;;;;;;4933191;29;20298;-68
2023/01/23 16:48:31;;;;;;;4.00;3.63;;;4.00;99.90;;;;;;4937967;29;20246;-67
2023/01/23 16:51:02;;;;;;;4.03;3.70;;;4.00;99.90;;;;;;4926245;29;20210;-68
2023/01/23 16:53:34;;;;;;;4.53;3.95;;;4.00;99.90;;;;;;4931191;29;20245;-68
2023/01/23 16:56:02;;;;;;;4.80;3.45;;;4.00;99.90;;;;;;4929976;29;20286;-67
2023/01/23 16:58:32;;;;;;;7.35;5.38;;;4.00;99.90;;;;;;4933863;29;20584;-69
2023/01/23 17:01:02;;;;;;;8.05;3.28;;;4.00;99.90;;;;;;4935622;29;20210;-68
2023/01/23 17:03:33;;;;;;;7.60;4.90;;;4.00;99.90;;;;;;4933287;29;20226;-68
2023/01/23 17:06:00;;;;;;;2.95;2.30;;;4.00;99.90;;;;;;4932679;29;20223;-69
2023/01/23 17:08:27;;;;;;;4.75;3.95;;;4.00;99.90;;;;;;4932992;29;20237;-69
2023/01/23 17:10:57;;;;;;;6.88;3.70;;;4.00;99.90;;;;;;4936154;29;20206;-68
2023/01/23 17:13:25;;;;;;;5.78;3.42;;;4.00;99.90;;;;;;4937302;29;20562;-69
2023/01/23 17:15:54;;;;;;;7.22;6.07;;;4.00;99.90;;;;;;4936683;29;20221;-69
2023/01/23 17:18:23;;;;;;;14.73;4.88;;;4.00;99.90;;;;;;4937636;29;20230;-69
2023/01/23 17:20:52;;;;;;;4.18;3.88;;;4.00;99.90;;;;;;4938656;29;20202;-68
2023/01/23 17:23:19;;;;;;;5.07;4.68;;;4.00;99.90;;;;;;4939865;29;20285;-68
2023/01/23 17:25:47;;;;;;;4.13;3.92;;;4.00;99.90;;;;;;4933312;29;20599;-68
2023/01/23 17:28:16;;;;;;;7.47;4.25;;;4.00;99.90;;;;;;4933951;29;20229;-68
2023/01/23 17:30:44;;;;;;;6.57;4.05;;;4.00;99.90;;;;;;4935750;29;20217;-67
2023/01/23 17:33:17;;;;;;;11.65;5.93;;;4.00;99.90;;;;;;4932519;29;20206;-68
2023/01/23 17:35:44;;;;;;;6.32;4.55;;;4.00;99.90;;;;;;4934090;29;20210;-68
2023/01/23 17:38:17;;;;;;;4.50;4.18;;;3.90;99.90;;;;;;4934177;29;20253;-68
2023/01/23 17:40:45;;;;;;;4.80;4.32;;;4.00;99.90;;;;;;4933618;29;20225;-68
2023/01/23 17:43:12;;;;;;;5.28;4.88;;;4.00;99.90;;;;;;4936485;28;20230;-68
2023/01/23 17:45:42;;;;;;;7.50;4.15;;;4.00;99.90;;;;;;4933874;29;20206;-68
2023/01/23 17:48:14;;;;;;;4.97;4.57;;;4.00;99.90;;;;;;4933090;29;20229;-69
2023/01/23 17:50:44;;;;;;;6.28;5.78;;;3.90;99.90;;;;;;4934133;29;20742;-69
2023/01/23 17:53:13;;;;;;;7.20;4.95;;;4.00;99.90;;;;;;4934006;29;20206;-67
2023/01/23 17:55:42;;;;;;;9.00;8.15;;;3.90;99.90;;;;;;4933322;29;20309;-68
2023/01/23 17:58:08;;;;;;;5.85;4.22;;;3.90;99.90;;;;;;4932617;29;21366;-68
2023/01/23 18:00:37;;;;;;;4.38;4.03;;;3.90;99.90;;;;;;4926142;29;20203;-69
2023/01/23 18:03:08;;;;;;;7.85;4.88;;;3.90;99.90;;;;;;4933616;29;20248;-69
2023/01/23 18:05:34;;;;;;;4.07;3.65;;;3.90;99.90;;;;;;4931406;29;20230;-69
2023/01/23 18:08:01;;;;;;;9.15;6.75;;;3.90;99.90;;;;;;4932606;29;20252;-69
2023/01/23 18:10:28;;;;;;;10.85;7.05;;;3.90;99.90;;;;;;4933009;29;20683;-69
2023/01/23 18:13:08;;;;;;;11.60;6.68;;;3.90;99.90;;;;;;4933271;29;20206;-69
2023/01/23 18:15:41;;;;;;;4.25;3.83;;;3.90;99.90;;;;;;4931762;29;20221;-69
2023/01/23 18:18:25;;;;;;;5.82;4.30;;;3.90;99.90;;;;;;4931149;29;20230;-69
2023/01/23 18:20:53;;;;;;;8.32;3.58;;;3.90;99.90;;;;;;4934633;29;20317;-69
2023/01/23 18:23:21;;;;;;;6.90;4.55;;;3.90;99.90;;;;;;4933132;29;20242;-69
2023/01/23 18:25:52;;;;;;;8.55;7.88;;;3.90;99.90;;;;;;4932031;29;20671;-69
2023/01/23 18:28:19;;;;;;;7.38;3.40;;;3.90;99.90;;;;;;4930960;29;20249;-69
2023/01/23 18:30:56;;;;;;;7.28;5.60;;;3.90;99.90;;;;;;4931906;29;20594;-68
2023/01/23 18:33:40;;;;;;;10.27;4.80;;;3.90;99.90;;;;;;4930904;29;20210;-69
2023/01/23 18:36:19;;;;;;;7.72;5.65;;;3.90;99.90;;;;;;4967381;23;20240;-66
2023/01/23 18:39:10;;;;;;;12.18;5.32;;;3.90;99.90;;;;;;4953065;28;20247;-68